Aeroporto :
LOGIN :

Iscrizione | Disclaimer

   EN    FR    IT 

 










Sommario :    VFR   VFR Marginale   IFR   IFR Intensivo   IFR Molto Intensivo
Visibilità : 
Base nubi : 
>= 8 km
>= 3000ft
5 / 8 km
1000 / 3000 ft
1500m / 5 km
500 / 1000 ft
800 / 1500m
200 / 500 ft
< 800m
< 200 ft
Simboli :   Temporali  Nebbia  Neve Forte  Precipitazioni Forti  Vento > 20 kt
SIGMETs :   Varie  Temporali  Ghiacco  Turbolenza  Onda orograficha  Ceneri Vulcaniche






- Altitudine del aeroporto : 17 ft
- Codice IATA : CPH


EKCH - København - Kastrup (Copenhagen)

ULTIMO METAR :
  • 071020Z AUTO 29013KT 9999 NCD 15/04 Q1029 NOSIG

METARs OBSOLETI :
  • 070950Z AUTO 30014KT 9999 NCD 14/03 Q1029 NOSIG
  • 070920Z AUTO 30012KT 9999 NCD 14/03 Q1029 NOSIG
  • 070850Z AUTO 30014KT 270V340 9999 NCD 13/03 Q1029 NOSIG
  • 070820Z AUTO 29015G25KT 9999 NCD 13/04 Q1028 NOSIG
  • 070750Z AUTO 30012KT 9999 NCD 12/05 Q1028 NOSIG

TAF TAF EKCH
Valido dal 07 a 06 ore il 08 a 06 ore UTC


070500Z 0706/0806 30012KT CAVOK
BECMG 0717/0720 VRB03KT



MetMap, La meteo Aeronautica in un colpo d'occhio ! - Copyright ORBIFLY Dicembre 2007 - Disclaimer

ORBIFLY MET'MAP TEAM :

Programmazione e sviluppo : Alexandra Zaïnal
Concezione : Baudouin d'Aumeries
Aiuto per la programmazione : Marc-Olivier Méhu
Supporto tecnico e logistico : Manuel Goepfert
Aiuto per la traduzione : Arnaldo La Scala

Contatto : metmap@orbifly.com




FONTI E CREDITI :

   NOAA